sensor_id;sensor_type;location;lat;lon;timestamp;P1;durP1;ratioP1;P2;durP2;ratioP2
26391;SDS011;14572;43.120;1.178;2023-09-12T04:27:41;5.18;;;4.13;;
26391;SDS011;14572;43.120;1.178;2023-09-12T04:30:11;7.57;;;4.13;;
26391;SDS011;14572;43.120;1.178;2023-09-12T04:36:00;5.13;;;3.53;;
26391;SDS011;14572;43.120;1.178;2023-09-12T04:38:28;4.57;;;3.72;;
26391;SDS011;14572;43.120;1.178;2023-09-12T04:44:05;6.05;;;3.88;;
26391;SDS011;14572;43.120;1.178;2023-09-12T04:46:34;5.50;;;3.92;;
26391;SDS011;14572;43.120;1.178;2023-09-12T04:52:23;7.60;;;3.88;;
26391;SDS011;14572;43.120;1.178;2023-09-12T04:54:50;3.97;;;3.25;;
26391;SDS011;14572;43.120;1.178;2023-09-12T04:57:17;5.15;;;3.78;;
26391;SDS011;14572;43.120;1.178;2023-09-12T04:59:45;7.05;;;3.90;;
26391;SDS011;14572;43.120;1.178;2023-09-12T05:02:27;6.28;;;3.85;;
26391;SDS011;14572;43.120;1.178;2023-09-12T05:04:54;5.90;;;4.13;;
26391;SDS011;14572;43.120;1.178;2023-09-12T05:07:24;6.93;;;3.80;;
26391;SDS011;14572;43.120;1.178;2023-09-12T05:09:51;6.03;;;4.03;;
26391;SDS011;14572;43.120;1.178;2023-09-12T05:12:19;5.95;;;3.92;;
26391;SDS011;14572;43.120;1.178;2023-09-12T05:14:49;7.63;;;3.85;;
26391;SDS011;14572;43.120;1.178;2023-09-12T05:20:41;7.57;;;4.15;;
26391;SDS011;14572;43.120;1.178;2023-09-12T05:23:11;6.50;;;4.03;;
26391;SDS011;14572;43.120;1.178;2023-09-12T05:25:44;6.13;;;3.85;;
26391;SDS011;14572;43.120;1.178;2023-09-12T05:28:11;6.57;;;4.35;;
26391;SDS011;14572;43.120;1.178;2023-09-12T05:30:42;6.60;;;4.18;;
26391;SDS011;14572;43.120;1.178;2023-09-12T05:33:18;4.97;;;3.35;;
26391;SDS011;14572;43.120;1.178;2023-09-12T05:39:20;6.40;;;4.25;;
26391;SDS011;14572;43.120;1.178;2023-09-12T05:41:48;4.97;;;4.00;;
26391;SDS011;14572;43.120;1.178;2023-09-12T05:44:15;4.43;;;3.65;;
26391;SDS011;14572;43.120;1.178;2023-09-12T05:46:45;5.60;;;4.03;;
26391;SDS011;14572;43.120;1.178;2023-09-12T05:49:13;8.07;;;3.80;;
26391;SDS011;14572;43.120;1.178;2023-09-12T05:51:40;6.88;;;4.50;;
26391;SDS011;14572;43.120;1.178;2023-09-12T05:54:07;6.78;;;4.38;;
26391;SDS011;14572;43.120;1.178;2023-09-12T05:56:34;7.63;;;4.53;;
26391;SDS011;14572;43.120;1.178;2023-09-12T05:59:02;5.80;;;4.13;;
26391;SDS011;14572;43.120;1.178;2023-09-12T06:01:29;4.70;;;3.85;;
26391;SDS011;14572;43.120;1.178;2023-09-12T06:03:57;6.50;;;4.28;;
26391;SDS011;14572;43.120;1.178;2023-09-12T06:06:24;5.22;;;4.28;;
26391;SDS011;14572;43.120;1.178;2023-09-12T06:08:51;5.70;;;4.05;;
26391;SDS011;14572;43.120;1.178;2023-09-12T06:11:19;7.82;;;4.57;;
26391;SDS011;14572;43.120;1.178;2023-09-12T06:13:46;7.22;;;4.30;;
26391;SDS011;14572;43.120;1.178;2023-09-12T06:16:13;5.88;;;4.20;;
26391;SDS011;14572;43.120;1.178;2023-09-12T06:18:40;7.18;;;4.70;;
26391;SDS011;14572;43.120;1.178;2023-09-12T06:21:08;5.40;;;4.00;;
26391;SDS011;14572;43.120;1.178;2023-09-12T06:23:35;4.45;;;3.70;;
26391;SDS011;14572;43.120;1.178;2023-09-12T06:26:03;10.05;;;4.40;;
26391;SDS011;14572;43.120;1.178;2023-09-12T06:28:30;5.28;;;3.85;;
26391;SDS011;14572;43.120;1.178;2023-09-12T06:30:58;5.30;;;4.20;;
26391;SDS011;14572;43.120;1.178;2023-09-12T06:33:25;5.63;;;4.22;;
26391;SDS011;14572;43.120;1.178;2023-09-12T06:35:53;7.30;;;4.28;;
26391;SDS011;14572;43.120;1.178;2023-09-12T06:38:22;6.00;;;4.28;;
26391;SDS011;14572;43.120;1.178;2023-09-12T06:40:49;7.82;;;4.93;;
26391;SDS011;14572;43.120;1.178;2023-09-12T06:43:16;7.85;;;4.60;;
26391;SDS011;14572;43.120;1.178;2023-09-12T06:45:44;5.75;;;4.90;;
26391;SDS011;14572;43.120;1.178;2023-09-12T06:48:11;5.30;;;4.78;;
26391;SDS011;14572;43.120;1.178;2023-09-12T06:50:38;5.93;;;4.53;;
26391;SDS011;14572;43.120;1.178;2023-09-12T06:53:05;6.68;;;4.35;;
26391;SDS011;14572;43.120;1.178;2023-09-12T06:55:34;5.22;;;4.45;;
26391;SDS011;14572;43.120;1.178;2023-09-12T06:58:02;5.03;;;4.10;;
26391;SDS011;14572;43.120;1.178;2023-09-12T07:00:29;5.90;;;4.40;;
26391;SDS011;14572;43.120;1.178;2023-09-12T07:02:57;6.40;;;4.22;;
26391;SDS011;14572;43.120;1.178;2023-09-12T07:05:25;5.32;;;4.25;;
26391;SDS011;14572;43.120;1.178;2023-09-12T07:07:52;5.53;;;4.18;;
26391;SDS011;14572;43.120;1.178;2023-09-12T07:10:19;4.65;;;4.05;;
26391;SDS011;14572;43.120;1.178;2023-09-12T07:12:47;7.45;;;4.22;;
26391;SDS011;14572;43.120;1.178;2023-09-12T07:15:15;5.95;;;4.32;;
26391;SDS011;14572;43.120;1.178;2023-09-12T07:17:42;6.20;;;4.32;;
26391;SDS011;14572;43.120;1.178;2023-09-12T07:20:09;4.45;;;3.95;;
26391;SDS011;14572;43.120;1.178;2023-09-12T07:22:38;6.07;;;4.25;;
26391;SDS011;14572;43.120;1.178;2023-09-12T07:25:06;5.63;;;4.07;;
26391;SDS011;14572;43.120;1.178;2023-09-12T07:27:36;7.60;;;4.22;;
26391;SDS011;14572;43.120;1.178;2023-09-12T07:30:05;7.20;;;4.18;;
26391;SDS011;14572;43.120;1.178;2023-09-12T07:32:33;5.25;;;4.00;;
26391;SDS011;14572;43.120;1.178;2023-09-12T07:35:00;6.15;;;4.03;;
26391;SDS011;14572;43.120;1.178;2023-09-12T07:37:27;5.30;;;4.65;;
26391;SDS011;14572;43.120;1.178;2023-09-12T07:39:54;7.20;;;5.40;;
26391;SDS011;14572;43.120;1.178;2023-09-12T07:42:22;9.80;;;5.88;;
26391;SDS011;14572;43.120;1.178;2023-09-12T07:44:49;8.05;;;4.80;;
26391;SDS011;14572;43.120;1.178;2023-09-12T07:47:18;8.30;;;4.93;;
26391;SDS011;14572;43.120;1.178;2023-09-12T07:49:45;5.40;;;4.90;;
26391;SDS011;14572;43.120;1.178;2023-09-12T07:52:12;7.78;;;4.90;;
26391;SDS011;14572;43.120;1.178;2023-09-12T07:54:39;6.70;;;4.90;;
26391;SDS011;14572;43.120;1.178;2023-09-12T07:57:06;7.65;;;5.03;;
26391;SDS011;14572;43.120;1.178;2023-09-12T07:59:33;8.45;;;5.10;;
26391;SDS011;14572;43.120;1.178;2023-09-12T08:02:00;7.85;;;5.22;;
26391;SDS011;14572;43.120;1.178;2023-09-12T08:04:29;7.00;;;5.13;;
26391;SDS011;14572;43.120;1.178;2023-09-12T08:06:56;9.18;;;5.43;;
26391;SDS011;14572;43.120;1.178;2023-09-12T08:09:23;7.43;;;4.88;;
26391;SDS011;14572;43.120;1.178;2023-09-12T08:11:50;9.20;;;4.97;;
26391;SDS011;14572;43.120;1.178;2023-09-12T08:14:18;7.75;;;4.72;;
26391;SDS011;14572;43.120;1.178;2023-09-12T08:16:46;6.18;;;4.53;;
26391;SDS011;14572;43.120;1.178;2023-09-12T08:19:13;9.38;;;4.88;;
26391;SDS011;14572;43.120;1.178;2023-09-12T08:21:41;7.35;;;4.80;;
26391;SDS011;14572;43.120;1.178;2023-09-12T08:24:08;7.88;;;4.95;;
26391;SDS011;14572;43.120;1.178;2023-09-12T08:26:35;4.75;;;4.25;;
26391;SDS011;14572;43.120;1.178;2023-09-12T08:29:03;5.18;;;4.38;;
26391;SDS011;14572;43.120;1.178;2023-09-12T08:31:30;5.35;;;4.40;;
26391;SDS011;14572;43.120;1.178;2023-09-12T08:33:57;6.07;;;4.70;;
26391;SDS011;14572;43.120;1.178;2023-09-12T08:36:24;7.78;;;4.93;;
26391;SDS011;14572;43.120;1.178;2023-09-12T08:38:52;5.88;;;4.88;;
26391;SDS011;14572;43.120;1.178;2023-09-12T08:41:19;7.65;;;4.70;;
26391;SDS011;14572;43.120;1.178;2023-09-12T08:43:46;8.95;;;5.03;;
26391;SDS011;14572;43.120;1.178;2023-09-12T08:46:14;6.38;;;4.80;;
26391;SDS011;14572;43.120;1.178;2023-09-12T08:48:41;6.68;;;5.15;;
26391;SDS011;14572;43.120;1.178;2023-09-12T08:51:09;5.70;;;4.85;;
26391;SDS011;14572;43.120;1.178;2023-09-12T08:53:37;7.85;;;5.28;;
26391;SDS011;14572;43.120;1.178;2023-09-12T08:56:06;5.28;;;4.35;;
26391;SDS011;14572;43.120;1.178;2023-09-12T08:58:33;5.63;;;5.03;;
26391;SDS011;14572;43.120;1.178;2023-09-12T09:01:01;6.63;;;5.07;;
26391;SDS011;14572;43.120;1.178;2023-09-12T09:03:29;6.00;;;4.30;;
26391;SDS011;14572;43.120;1.178;2023-09-12T09:05:57;9.07;;;4.82;;
26391;SDS011;14572;43.120;1.178;2023-09-12T09:08:26;4.88;;;4.03;;
26391;SDS011;14572;43.120;1.178;2023-09-12T09:10:56;8.18;;;4.18;;
26391;SDS011;14572;43.120;1.178;2023-09-12T09:13:25;5.95;;;4.35;;
26391;SDS011;14572;43.120;1.178;2023-09-12T09:21:27;6.63;;;4.60;;
26391;SDS011;14572;43.120;1.178;2023-09-12T09:23:56;7.63;;;4.55;;
26391;SDS011;14572;43.120;1.178;2023-09-12T09:26:24;6.00;;;4.45;;
26391;SDS011;14572;43.120;1.178;2023-09-12T09:29:05;7.57;;;4.70;;
26391;SDS011;14572;43.120;1.178;2023-09-12T09:31:33;5.05;;;4.15;;
26391;SDS011;14572;43.120;1.178;2023-09-12T09:34:00;8.00;;;4.22;;
26391;SDS011;14572;43.120;1.178;2023-09-12T09:36:29;6.03;;;4.30;;
26391;SDS011;14572;43.120;1.178;2023-09-12T09:38:56;8.18;;;4.70;;
26391;SDS011;14572;43.120;1.178;2023-09-12T09:41:24;6.35;;;4.50;;
26391;SDS011;14572;43.120;1.178;2023-09-12T09:43:51;7.75;;;4.50;;
26391;SDS011;14572;43.120;1.178;2023-09-12T09:46:20;6.28;;;4.53;;
26391;SDS011;14572;43.120;1.178;2023-09-12T09:48:50;7.03;;;4.32;;
26391;SDS011;14572;43.120;1.178;2023-09-12T09:51:18;5.00;;;4.20;;
26391;SDS011;14572;43.120;1.178;2023-09-12T09:53:45;5.00;;;3.90;;
26391;SDS011;14572;43.120;1.178;2023-09-12T09:56:13;5.00;;;3.83;;
26391;SDS011;14572;43.120;1.178;2023-09-12T09:58:47;6.68;;;3.88;;
26391;SDS011;14572;43.120;1.178;2023-09-12T10:01:15;4.88;;;3.80;;
26391;SDS011;14572;43.120;1.178;2023-09-12T10:03:47;3.75;;;3.38;;
26391;SDS011;14572;43.120;1.178;2023-09-12T10:06:15;4.68;;;3.80;;
26391;SDS011;14572;43.120;1.178;2023-09-12T10:08:43;4.45;;;4.05;;
26391;SDS011;14572;43.120;1.178;2023-09-12T10:11:11;4.80;;;3.75;;
26391;SDS011;14572;43.120;1.178;2023-09-12T10:13:42;4.97;;;3.85;;
26391;SDS011;14572;43.120;1.178;2023-09-12T10:16:13;4.03;;;3.67;;
26391;SDS011;14572;43.120;1.178;2023-09-12T10:18:44;3.95;;;3.30;;
26391;SDS011;14572;43.120;1.178;2023-09-12T10:21:18;3.70;;;3.40;;
26391;SDS011;14572;43.120;1.178;2023-09-12T10:23:49;5.05;;;3.45;;
26391;SDS011;14572;43.120;1.178;2023-09-12T10:26:16;6.07;;;3.25;;
26391;SDS011;14572;43.120;1.178;2023-09-12T10:28:43;5.30;;;3.55;;
26391;SDS011;14572;43.120;1.178;2023-09-12T10:31:11;3.75;;;3.40;;
26391;SDS011;14572;43.120;1.178;2023-09-12T10:33:39;3.83;;;3.53;;
26391;SDS011;14572;43.120;1.178;2023-09-12T10:36:08;3.58;;;3.10;;
26391;SDS011;14572;43.120;1.178;2023-09-12T10:38:36;6.75;;;3.70;;
26391;SDS011;14572;43.120;1.178;2023-09-12T10:41:06;4.45;;;3.17;;
26391;SDS011;14572;43.120;1.178;2023-09-12T10:43:35;5.15;;;3.63;;
26391;SDS011;14572;43.120;1.178;2023-09-12T10:46:03;4.22;;;3.42;;
26391;SDS011;14572;43.120;1.178;2023-09-12T10:48:32;4.38;;;3.38;;
26391;SDS011;14572;43.120;1.178;2023-09-12T10:50:59;5.40;;;3.35;;
26391;SDS011;14572;43.120;1.178;2023-09-12T10:53:30;3.92;;;3.38;;
26391;SDS011;14572;43.120;1.178;2023-09-12T10:55:59;3.70;;;3.30;;
26391;SDS011;14572;43.120;1.178;2023-09-12T10:58:26;5.25;;;3.53;;
26391;SDS011;14572;43.120;1.178;2023-09-12T11:03:49;6.07;;;3.40;;
26391;SDS011;14572;43.120;1.178;2023-09-12T11:06:19;4.55;;;3.70;;
26391;SDS011;14572;43.120;1.178;2023-09-12T11:11:45;6.85;;;3.33;;
26391;SDS011;14572;43.120;1.178;2023-09-12T11:14:14;4.25;;;3.55;;
26391;SDS011;14572;43.120;1.178;2023-09-12T11:16:42;3.70;;;3.40;;
26391;SDS011;14572;43.120;1.178;2023-09-12T11:19:13;3.92;;;3.55;;
26391;SDS011;14572;43.120;1.178;2023-09-12T11:21:42;3.85;;;3.25;;
26391;SDS011;14572;43.120;1.178;2023-09-12T11:24:10;4.03;;;3.72;;
26391;SDS011;14572;43.120;1.178;2023-09-12T11:29:34;4.82;;;3.60;;
26391;SDS011;14572;43.120;1.178;2023-09-12T11:32:02;4.80;;;3.50;;
26391;SDS011;14572;43.120;1.178;2023-09-12T11:34:36;3.67;;;3.38;;
26391;SDS011;14572;43.120;1.178;2023-09-12T11:37:03;3.60;;;3.30;;
26391;SDS011;14572;43.120;1.178;2023-09-12T11:39:31;4.38;;;3.38;;
26391;SDS011;14572;43.120;1.178;2023-09-12T11:41:59;6.20;;;3.45;;
26391;SDS011;14572;43.120;1.178;2023-09-12T11:44:27;4.47;;;3.70;;
26391;SDS011;14572;43.120;1.178;2023-09-12T11:46:58;4.47;;;4.07;;
26391;SDS011;14572;43.120;1.178;2023-09-12T11:49:28;6.63;;;4.18;;
26391;SDS011;14572;43.120;1.178;2023-09-12T11:52:02;6.43;;;4.28;;
26391;SDS011;14572;43.120;1.178;2023-09-12T11:54:29;5.47;;;4.05;;
26391;SDS011;14572;43.120;1.178;2023-09-12T11:56:57;5.78;;;4.15;;
26391;SDS011;14572;43.120;1.178;2023-09-12T11:59:25;4.28;;;3.60;;
26391;SDS011;14572;43.120;1.178;2023-09-12T12:01:52;6.57;;;3.70;;
26391;SDS011;14572;43.120;1.178;2023-09-12T12:04:22;6.97;;;4.20;;
26391;SDS011;14572;43.120;1.178;2023-09-12T12:06:50;9.65;;;4.15;;
26391;SDS011;14572;43.120;1.178;2023-09-12T12:09:18;6.63;;;4.88;;
26391;SDS011;14572;43.120;1.178;2023-09-12T12:11:46;5.75;;;4.20;;
26391;SDS011;14572;43.120;1.178;2023-09-12T12:14:14;7.97;;;4.80;;
26391;SDS011;14572;43.120;1.178;2023-09-12T12:16:42;5.53;;;4.57;;
26391;SDS011;14572;43.120;1.178;2023-09-12T12:19:10;5.38;;;4.28;;
26391;SDS011;14572;43.120;1.178;2023-09-12T12:21:38;4.93;;;4.20;;
26391;SDS011;14572;43.120;1.178;2023-09-12T12:24:07;6.03;;;4.07;;
26391;SDS011;14572;43.120;1.178;2023-09-12T12:26:34;7.43;;;4.75;;
26391;SDS011;14572;43.120;1.178;2023-09-12T12:29:02;6.03;;;4.70;;
26391;SDS011;14572;43.120;1.178;2023-09-12T12:31:30;6.30;;;5.07;;
26391;SDS011;14572;43.120;1.178;2023-09-12T12:33:57;5.15;;;4.22;;
26391;SDS011;14572;43.120;1.178;2023-09-12T12:36:25;8.00;;;4.82;;
26391;SDS011;14572;43.120;1.178;2023-09-12T12:38:54;9.90;;;4.38;;
26391;SDS011;14572;43.120;1.178;2023-09-12T12:41:22;5.05;;;4.60;;
26391;SDS011;14572;43.120;1.178;2023-09-12T12:43:51;6.00;;;4.75;;
26391;SDS011;14572;43.120;1.178;2023-09-12T12:46:20;5.93;;;4.75;;
26391;SDS011;14572;43.120;1.178;2023-09-12T12:48:47;9.63;;;4.90;;
26391;SDS011;14572;43.120;1.178;2023-09-12T12:51:15;5.72;;;5.05;;
26391;SDS011;14572;43.120;1.178;2023-09-12T12:53:44;7.05;;;5.10;;
26391;SDS011;14572;43.120;1.178;2023-09-12T12:56:17;5.55;;;4.97;;
26391;SDS011;14572;43.120;1.178;2023-09-12T12:58:48;7.28;;;4.55;;
26391;SDS011;14572;43.120;1.178;2023-09-12T13:01:16;5.85;;;4.90;;
26391;SDS011;14572;43.120;1.178;2023-09-12T13:03:43;7.53;;;5.30;;
26391;SDS011;14572;43.120;1.178;2023-09-12T13:06:12;7.28;;;5.13;;
26391;SDS011;14572;43.120;1.178;2023-09-12T13:08:40;10.07;;;5.25;;
26391;SDS011;14572;43.120;1.178;2023-09-12T13:11:08;5.80;;;4.70;;
26391;SDS011;14572;43.120;1.178;2023-09-12T13:13:37;5.85;;;4.75;;
26391;SDS011;14572;43.120;1.178;2023-09-12T13:16:05;7.10;;;4.82;;
26391;SDS011;14572;43.120;1.178;2023-09-12T13:18:34;7.35;;;5.05;;
26391;SDS011;14572;43.120;1.178;2023-09-12T13:21:02;7.97;;;5.47;;
26391;SDS011;14572;43.120;1.178;2023-09-12T13:23:30;5.03;;;4.53;;
26391;SDS011;14572;43.120;1.178;2023-09-12T13:25:57;6.18;;;5.28;;
26391;SDS011;14572;43.120;1.178;2023-09-12T13:28:24;5.85;;;4.97;;
26391;SDS011;14572;43.120;1.178;2023-09-12T13:30:53;6.80;;;5.13;;
26391;SDS011;14572;43.120;1.178;2023-09-12T13:33:20;7.28;;;4.78;;
26391;SDS011;14572;43.120;1.178;2023-09-12T13:35:48;6.85;;;4.85;;
26391;SDS011;14572;43.120;1.178;2023-09-12T13:38:15;6.45;;;4.78;;
26391;SDS011;14572;43.120;1.178;2023-09-12T13:40:44;5.80;;;4.20;;
26391;SDS011;14572;43.120;1.178;2023-09-12T13:43:11;6.72;;;4.38;;
26391;SDS011;14572;43.120;1.178;2023-09-12T13:45:39;7.93;;;4.70;;
26391;SDS011;14572;43.120;1.178;2023-09-12T13:48:07;5.68;;;4.20;;
26391;SDS011;14572;43.120;1.178;2023-09-12T13:50:35;7.70;;;4.55;;
26391;SDS011;14572;43.120;1.178;2023-09-12T13:53:02;6.70;;;4.22;;
26391;SDS011;14572;43.120;1.178;2023-09-12T13:55:31;6.57;;;4.20;;
26391;SDS011;14572;43.120;1.178;2023-09-12T13:58:00;6.10;;;4.20;;
26391;SDS011;14572;43.120;1.178;2023-09-12T14:00:28;4.00;;;3.50;;
26391;SDS011;14572;43.120;1.178;2023-09-12T14:02:55;5.13;;;4.15;;
26391;SDS011;14572;43.120;1.178;2023-09-12T14:05:24;6.00;;;4.13;;
26391;SDS011;14572;43.120;1.178;2023-09-12T14:07:51;4.10;;;3.70;;
26391;SDS011;14572;43.120;1.178;2023-09-12T14:10:18;5.43;;;4.25;;
26391;SDS011;14572;43.120;1.178;2023-09-12T14:12:45;4.93;;;4.18;;
26391;SDS011;14572;43.120;1.178;2023-09-12T14:15:12;4.95;;;3.55;;
26391;SDS011;14572;43.120;1.178;2023-09-12T14:17:40;4.70;;;4.00;;
26391;SDS011;14572;43.120;1.178;2023-09-12T14:20:08;4.60;;;3.60;;
26391;SDS011;14572;43.120;1.178;2023-09-12T14:22:37;4.65;;;4.13;;
26391;SDS011;14572;43.120;1.178;2023-09-12T14:25:05;4.28;;;3.83;;
26391;SDS011;14572;43.120;1.178;2023-09-12T14:27:33;3.85;;;3.45;;
26391;SDS011;14572;43.120;1.178;2023-09-12T14:30:00;3.70;;;3.40;;
26391;SDS011;14572;43.120;1.178;2023-09-12T14:32:28;5.03;;;3.65;;
26391;SDS011;14572;43.120;1.178;2023-09-12T14:34:55;4.28;;;3.88;;
26391;SDS011;14572;43.120;1.178;2023-09-12T14:37:22;6.88;;;3.42;;
26391;SDS011;14572;43.120;1.178;2023-09-12T14:39:54;4.07;;;3.67;;
26391;SDS011;14572;43.120;1.178;2023-09-12T14:42:21;5.30;;;3.45;;
26391;SDS011;14572;43.120;1.178;2023-09-12T14:44:54;3.30;;;2.92;;
26391;SDS011;14572;43.120;1.178;2023-09-12T14:47:21;3.58;;;3.28;;
26391;SDS011;14572;43.120;1.178;2023-09-12T14:49:49;5.20;;;3.65;;
26391;SDS011;14572;43.120;1.178;2023-09-12T14:52:16;5.20;;;3.65;;
26391;SDS011;14572;43.120;1.178;2023-09-12T14:54:43;3.60;;;3.30;;
26391;SDS011;14572;43.120;1.178;2023-09-12T14:57:11;4.47;;;3.83;;
26391;SDS011;14572;43.120;1.178;2023-09-12T14:59:39;4.47;;;3.83;;
26391;SDS011;14572;43.120;1.178;2023-09-12T15:02:06;5.82;;;3.75;;
26391;SDS011;14572;43.120;1.178;2023-09-12T15:04:33;5.82;;;3.80;;
26391;SDS011;14572;43.120;1.178;2023-09-12T15:07:00;4.18;;;3.78;;
26391;SDS011;14572;43.120;1.178;2023-09-12T15:09:27;3.90;;;3.50;;
26391;SDS011;14572;43.120;1.178;2023-09-12T15:11:54;4.63;;;3.47;;
26391;SDS011;14572;43.120;1.178;2023-09-12T15:14:22;4.53;;;3.60;;
26391;SDS011;14572;43.120;1.178;2023-09-12T15:16:49;3.70;;;3.40;;
26391;SDS011;14572;43.120;1.178;2023-09-12T15:19:16;3.95;;;3.33;;
26391;SDS011;14572;43.120;1.178;2023-09-12T15:21:43;5.78;;;3.60;;
26391;SDS011;14572;43.120;1.178;2023-09-12T15:24:10;5.60;;;3.45;;
26391;SDS011;14572;43.120;1.178;2023-09-12T15:26:37;4.00;;;3.60;;
26391;SDS011;14572;43.120;1.178;2023-09-12T15:29:04;4.90;;;4.10;;
26391;SDS011;14572;43.120;1.178;2023-09-12T15:31:34;5.85;;;3.75;;
26391;SDS011;14572;43.120;1.178;2023-09-12T15:34:01;4.97;;;4.05;;
26391;SDS011;14572;43.120;1.178;2023-09-12T15:36:28;4.25;;;3.47;;
26391;SDS011;14572;43.120;1.178;2023-09-12T15:38:56;5.40;;;3.95;;
26391;SDS011;14572;43.120;1.178;2023-09-12T15:41:23;6.32;;;3.83;;
26391;SDS011;14572;43.120;1.178;2023-09-12T15:43:50;4.15;;;3.80;;
26391;SDS011;14572;43.120;1.178;2023-09-12T15:46:17;4.57;;;3.63;;
26391;SDS011;14572;43.120;1.178;2023-09-12T15:48:45;5.07;;;4.30;;
26391;SDS011;14572;43.120;1.178;2023-09-12T15:51:12;6.15;;;4.05;;
26391;SDS011;14572;43.120;1.178;2023-09-12T15:53:39;7.15;;;3.78;;
26391;SDS011;14572;43.120;1.178;2023-09-12T15:56:07;6.60;;;4.05;;
26391;SDS011;14572;43.120;1.178;2023-09-12T15:58:34;6.68;;;3.92;;
26391;SDS011;14572;43.120;1.178;2023-09-12T16:01:01;5.20;;;3.92;;
26391;SDS011;14572;43.120;1.178;2023-09-12T16:03:29;4.72;;;3.85;;
26391;SDS011;14572;43.120;1.178;2023-09-12T16:05:58;5.63;;;3.95;;
26391;SDS011;14572;43.120;1.178;2023-09-12T16:08:25;4.78;;;3.85;;
26391;SDS011;14572;43.120;1.178;2023-09-12T16:10:53;4.63;;;4.22;;
26391;SDS011;14572;43.120;1.178;2023-09-12T16:13:20;5.10;;;4.40;;
26391;SDS011;14572;43.120;1.178;2023-09-12T16:15:47;5.70;;;4.00;;
26391;SDS011;14572;43.120;1.178;2023-09-12T16:18:14;4.18;;;3.78;;
26391;SDS011;14572;43.120;1.178;2023-09-12T16:20:40;6.07;;;4.00;;
26391;SDS011;14572;43.120;1.178;2023-09-12T16:23:09;4.82;;;3.95;;
26391;SDS011;14572;43.120;1.178;2023-09-12T16:25:36;4.90;;;3.92;;
26391;SDS011;14572;43.120;1.178;2023-09-12T16:28:03;5.13;;;3.78;;
26391;SDS011;14572;43.120;1.178;2023-09-12T16:30:31;5.22;;;3.63;;
26391;SDS011;14572;43.120;1.178;2023-09-12T16:32:58;4.05;;;3.58;;
26391;SDS011;14572;43.120;1.178;2023-09-12T16:35:25;5.38;;;3.90;;
26391;SDS011;14572;43.120;1.178;2023-09-12T16:37:52;6.13;;;4.20;;
26391;SDS011;14572;43.120;1.178;2023-09-12T16:40:21;3.95;;;3.50;;
26391;SDS011;14572;43.120;1.178;2023-09-12T16:42:48;7.15;;;3.92;;
26391;SDS011;14572;43.120;1.178;2023-09-12T16:45:15;4.65;;;3.72;;
26391;SDS011;14572;43.120;1.178;2023-09-12T16:47:42;3.90;;;3.17;;
26391;SDS011;14572;43.120;1.178;2023-09-12T16:50:09;4.43;;;4.03;;
26391;SDS011;14572;43.120;1.178;2023-09-12T16:52:36;4.60;;;3.67;;
26391;SDS011;14572;43.120;1.178;2023-09-12T16:55:04;6.15;;;3.90;;
26391;SDS011;14572;43.120;1.178;2023-09-12T16:57:32;4.53;;;3.50;;
26391;SDS011;14572;43.120;1.178;2023-09-12T16:59:59;5.68;;;3.50;;
26391;SDS011;14572;43.120;1.178;2023-09-12T17:02:28;8.18;;;3.80;;
26391;SDS011;14572;43.120;1.178;2023-09-12T17:05:00;10.63;;;3.67;;
26391;SDS011;14572;43.120;1.178;2023-09-12T17:07:28;4.97;;;3.67;;
26391;SDS011;14572;43.120;1.178;2023-09-12T17:09:55;5.30;;;3.67;;
26391;SDS011;14572;43.120;1.178;2023-09-12T17:12:22;3.85;;;3.50;;
26391;SDS011;14572;43.120;1.178;2023-09-12T17:14:51;5.05;;;3.25;;
26391;SDS011;14572;43.120;1.178;2023-09-12T17:17:18;5.63;;;3.78;;
26391;SDS011;14572;43.120;1.178;2023-09-12T17:19:45;5.45;;;3.80;;
26391;SDS011;14572;43.120;1.178;2023-09-12T17:22:15;4.68;;;3.88;;
26391;SDS011;14572;43.120;1.178;2023-09-12T17:24:42;3.97;;;2.95;;
26391;SDS011;14572;43.120;1.178;2023-09-12T17:27:11;2.45;;;2.22;;
26391;SDS011;14572;43.120;1.178;2023-09-12T17:29:38;2.08;;;1.98;;
26391;SDS011;14572;43.120;1.178;2023-09-12T17:32:11;3.53;;;1.60;;
26391;SDS011;14572;43.120;1.178;2023-09-12T17:34:39;6.57;;;1.65;;
26391;SDS011;14572;43.120;1.178;2023-09-12T17:37:10;13.38;;;2.03;;
26391;SDS011;14572;43.120;1.178;2023-09-12T17:39:39;11.98;;;2.50;;
26391;SDS011;14572;43.120;1.178;2023-09-12T17:42:09;9.90;;;2.88;;
26391;SDS011;14572;43.120;1.178;2023-09-12T17:44:36;10.23;;;2.42;;
26391;SDS011;14572;43.120;1.178;2023-09-12T17:47:05;6.95;;;2.30;;
26391;SDS011;14572;43.120;1.178;2023-09-12T17:49:39;11.68;;;2.78;;
26391;SDS011;14572;43.120;1.178;2023-09-12T17:52:17;6.10;;;2.35;;
26391;SDS011;14572;43.120;1.178;2023-09-12T17:54:46;5.00;;;2.65;;
26391;SDS011;14572;43.120;1.178;2023-09-12T17:57:14;8.02;;;2.42;;
26391;SDS011;14572;43.120;1.178;2023-09-12T17:59:41;4.78;;;2.80;;
26391;SDS011;14572;43.120;1.178;2023-09-12T18:02:20;8.05;;;3.10;;
26391;SDS011;14572;43.120;1.178;2023-09-12T18:04:48;6.97;;;2.72;;
26391;SDS011;14572;43.120;1.178;2023-09-12T18:07:17;4.63;;;2.60;;
26391;SDS011;14572;43.120;1.178;2023-09-12T18:09:44;8.70;;;2.78;;
26391;SDS011;14572;43.120;1.178;2023-09-12T18:12:19;5.80;;;2.67;;
26391;SDS011;14572;43.120;1.178;2023-09-12T18:14:49;4.25;;;2.20;;
26391;SDS011;14572;43.120;1.178;2023-09-12T18:17:18;4.88;;;2.60;;
26391;SDS011;14572;43.120;1.178;2023-09-12T18:19:46;5.90;;;2.55;;
26391;SDS011;14572;43.120;1.178;2023-09-12T18:22:15;5.32;;;2.42;;
26391;SDS011;14572;43.120;1.178;2023-09-12T18:24:43;3.85;;;3.00;;
26391;SDS011;14572;43.120;1.178;2023-09-12T18:27:10;8.35;;;2.38;;
26391;SDS011;14572;43.120;1.178;2023-09-12T18:29:39;5.75;;;2.95;;
26391;SDS011;14572;43.120;1.178;2023-09-12T18:32:09;2.65;;;2.30;;
26391;SDS011;14572;43.120;1.178;2023-09-12T18:34:41;2.97;;;2.38;;
26391;SDS011;14572;43.120;1.178;2023-09-12T18:37:10;3.80;;;2.40;;
26391;SDS011;14572;43.120;1.178;2023-09-12T18:39:37;3.80;;;2.25;;
26391;SDS011;14572;43.120;1.178;2023-09-12T18:42:04;2.90;;;2.17;;
26391;SDS011;14572;43.120;1.178;2023-09-12T18:44:33;3.90;;;2.10;;
26391;SDS011;14572;43.120;1.178;2023-09-12T18:47:10;2.50;;;2.10;;
26391;SDS011;14572;43.120;1.178;2023-09-12T18:49:39;4.93;;;2.33;;
26391;SDS011;14572;43.120;1.178;2023-09-12T18:52:06;2.65;;;2.05;;
26391;SDS011;14572;43.120;1.178;2023-09-12T18:54:38;4.10;;;2.10;;
26391;SDS011;14572;43.120;1.178;2023-09-12T18:57:09;4.00;;;1.80;;
26391;SDS011;14572;43.120;1.178;2023-09-12T18:59:37;3.38;;;1.88;;
26391;SDS011;14572;43.120;1.178;2023-09-12T19:02:04;2.53;;;2.03;;
26391;SDS011;14572;43.120;1.178;2023-09-12T19:04:31;5.25;;;2.30;;
26391;SDS011;14572;43.120;1.178;2023-09-12T19:07:04;4.40;;;1.98;;
26391;SDS011;14572;43.120;1.178;2023-09-12T19:09:33;5.50;;;1.67;;
26391;SDS011;14572;43.120;1.178;2023-09-12T19:12:04;3.88;;;1.65;;
26391;SDS011;14572;43.120;1.178;2023-09-12T19:14:32;3.85;;;1.75;;
26391;SDS011;14572;43.120;1.178;2023-09-12T19:16:59;2.97;;;1.80;;
26391;SDS011;14572;43.120;1.178;2023-09-12T19:19:31;3.40;;;1.80;;
26391;SDS011;14572;43.120;1.178;2023-09-12T19:22:01;2.60;;;1.88;;
26391;SDS011;14572;43.120;1.178;2023-09-12T19:24:30;4.13;;;1.90;;
26391;SDS011;14572;43.120;1.178;2023-09-12T19:27:04;3.72;;;1.90;;
26391;SDS011;14572;43.120;1.178;2023-09-12T19:29:45;6.78;;;2.40;;
26391;SDS011;14572;43.120;1.178;2023-09-12T19:32:13;2.92;;;2.00;;
26391;SDS011;14572;43.120;1.178;2023-09-12T19:34:40;3.30;;;2.10;;
26391;SDS011;14572;43.120;1.178;2023-09-12T19:37:10;3.83;;;2.10;;
26391;SDS011;14572;43.120;1.178;2023-09-12T19:39:40;3.30;;;1.90;;
26391;SDS011;14572;43.120;1.178;2023-09-12T19:42:10;3.47;;;1.83;;
26391;SDS011;14572;43.120;1.178;2023-09-12T19:44:40;3.60;;;1.80;;
26391;SDS011;14572;43.120;1.178;2023-09-12T19:47:14;5.75;;;2.00;;
26391;SDS011;14572;43.120;1.178;2023-09-12T19:49:44;2.08;;;1.80;;
26391;SDS011;14572;43.120;1.178;2023-09-12T19:52:11;3.50;;;1.83;;